TAR973 KLAX-KSFO
Flight info
| Callsign | TAR973 |
|---|---|
| Flight time | N/A |
| Altitude | 36000 |
| Route | SUMMR2 STOKD SERFR SERFR4 |
| Aircraft | A320/M-SDE3FGHIRWY/LB1 |
Departure
| Time | 2026-04-21 16:48 |
|---|---|
| Airport | Los Angeles International Airport (KLAX) |
Arrival
| Time | N/A |
|---|---|
| Airport | San Francisco International Airport (KSFO) |
| Time | Latitude | Longitude | Altitude | Speed | Heading |
|---|---|---|---|---|---|
| 2026-04-21 15:57 | 33.94665 | -118.40491 | 120 ft | 0 kts | 98° |
| 2026-04-21 16:31 | 33.94667 | -118.40505 | 120 ft | 2 kts | 98° |
| 2026-04-21 16:32 | 33.94669 | -118.40522 | 120 ft | 2 kts | 98° |
| 2026-04-21 16:32 | 33.94671 | -118.40539 | 120 ft | 1 kts | 98° |
| 2026-04-21 16:32 | 33.94672 | -118.40552 | 120 ft | 2 kts | 73° |
| 2026-04-21 16:32 | 33.94663 | -118.40566 | 120 ft | 2 kts | 31° |
| 2026-04-21 16:33 | 33.94651 | -118.40571 | 120 ft | 0 kts | 357° |
| 2026-04-21 16:33 | 33.94644 | -118.40570 | 120 ft | 1 kts | 351° |
| 2026-04-21 16:33 | 33.94643 | -118.40569 | 120 ft | 0 kts | 352° |
| 2026-04-21 16:40 | 33.94652 | -118.40571 | 120 ft | 2 kts | 352° |
| 2026-04-21 16:40 | 33.94672 | -118.40575 | 120 ft | 3 kts | 352° |
| 2026-04-21 16:40 | 33.94703 | -118.40579 | 120 ft | 5 kts | 352° |
| 2026-04-21 16:41 | 33.94744 | -118.40585 | 120 ft | 6 kts | 355° |
| 2026-04-21 16:41 | 33.94796 | -118.40595 | 120 ft | 8 kts | 348° |
| 2026-04-21 16:41 | 33.94854 | -118.40593 | 120 ft | 9 kts | 38° |
| 2026-04-21 16:41 | 33.94875 | -118.40514 | 120 ft | 10 kts | 82° |
| 2026-04-21 16:42 | 33.94885 | -118.40415 | 119 ft | 13 kts | 84° |
| 2026-04-21 16:42 | 33.94896 | -118.40297 | 117 ft | 14 kts | 84° |
| 2026-04-21 16:42 | 33.94908 | -118.40170 | 117 ft | 14 kts | 83° |
| 2026-04-21 16:42 | 33.94923 | -118.40090 | 116 ft | 5 kts | 47° |
| 2026-04-21 16:43 | 33.94929 | -118.40085 | 116 ft | 0 kts | 35° |
| 2026-04-21 16:46 | 33.94933 | -118.40082 | 116 ft | 1 kts | 28° |
| 2026-04-21 16:47 | 33.94951 | -118.40076 | 115 ft | 3 kts | 10° |
| 2026-04-21 16:47 | 33.94983 | -118.40073 | 115 ft | 5 kts | 356° |
| 2026-04-21 16:47 | 33.95019 | -118.40093 | 115 ft | 6 kts | 306° |
| 2026-04-21 16:47 | 33.95023 | -118.40147 | 116 ft | 6 kts | 262° |
| 2026-04-21 16:48 | 33.95002 | -118.40339 | 117 ft | 58 kts | 263° |
| 2026-04-21 16:48 | 33.94920 | -118.41128 | 124 ft | 127 kts | 263° |
| 2026-04-21 16:48 | 33.94779 | -118.42407 | 261 ft | 168 kts | 262° |
| 2026-04-21 16:48 | 33.94687 | -118.43719 | 1087 ft | 155 kts | 263° |
| 2026-04-21 16:49 | 33.94556 | -118.45048 | 1658 ft | 161 kts | 260° |
| 2026-04-21 16:49 | 33.94403 | -118.46416 | 2164 ft | 172 kts | 262° |
| 2026-04-21 16:49 | 33.94320 | -118.47926 | 2618 ft | 188 kts | 265° |
| 2026-04-21 16:49 | 33.94262 | -118.49539 | 3165 ft | 200 kts | 265° |
| 2026-04-21 16:50 | 33.94177 | -118.51281 | 3644 ft | 216 kts | 263° |
| 2026-04-21 16:50 | 33.94031 | -118.53195 | 4081 ft | 237 kts | 263° |
| 2026-04-21 16:50 | 33.93871 | -118.55242 | 4597 ft | 256 kts | 262° |
| 2026-04-21 16:50 | 33.93699 | -118.57444 | 5401 ft | 264 kts | 262° |
| 2026-04-21 16:51 | 33.93530 | -118.59619 | 6436 ft | 263 kts | 262° |
| 2026-04-21 16:51 | 33.93363 | -118.61780 | 7440 ft | 262 kts | 262° |
| 2026-04-21 16:51 | 33.93196 | -118.63958 | 8380 ft | 264 kts | 261° |
| 2026-04-21 16:51 | 33.93029 | -118.66115 | 9283 ft | 266 kts | 260° |
| 2026-04-21 16:52 | 33.92857 | -118.68350 | 10183 ft | 268 kts | 260° |
| 2026-04-21 16:52 | 33.92681 | -118.70612 | 10844 ft | 279 kts | 259° |
| 2026-04-21 16:52 | 33.92489 | -118.73016 | 11333 ft | 296 kts | 259° |
| 2026-04-21 16:52 | 33.92294 | -118.75512 | 12092 ft | 302 kts | 259° |
| 2026-04-21 16:53 | 33.92101 | -118.78017 | 12983 ft | 302 kts | 259° |
| 2026-04-21 16:53 | 33.91906 | -118.80546 | 13844 ft | 304 kts | 259° |
| 2026-04-21 16:53 | 33.91770 | -118.83091 | 14699 ft | 307 kts | 262° |
| 2026-04-21 16:53 | 33.91769 | -118.85644 | 15489 ft | 310 kts | 265° |
| 2026-04-21 16:54 | 33.91842 | -118.88273 | 16255 ft | 313 kts | 265° |
| 2026-04-21 16:54 | 33.91919 | -118.90896 | 16957 ft | 316 kts | 265° |
| 2026-04-21 16:54 | 33.91997 | -118.93541 | 17644 ft | 320 kts | 265° |
| 2026-04-21 16:54 | 33.92075 | -118.96246 | 18375 ft | 322 kts | 265° |
| 2026-04-21 16:55 | 33.92186 | -118.98943 | 19084 ft | 326 kts | 270° |
| 2026-04-21 16:55 | 33.92676 | -119.01663 | 19777 ft | 337 kts | 280° |
| 2026-04-21 16:55 | 33.93618 | -119.04297 | 20473 ft | 348 kts | 290° |
| 2026-04-21 16:55 | 33.94901 | -119.06880 | 21111 ft | 354 kts | 292° |
| 2026-04-21 16:56 | 33.96217 | -119.09413 | 21730 ft | 357 kts | 292° |
| 2026-04-21 16:56 | 33.97562 | -119.11997 | 22359 ft | 359 kts | 292° |
| 2026-04-21 16:56 | 33.98909 | -119.14599 | 22925 ft | 363 kts | 292° |
| 2026-04-21 16:56 | 34.00398 | -119.17167 | 23480 ft | 375 kts | 300° |
| 2026-04-21 16:57 | 34.02237 | -119.19531 | 24058 ft | 387 kts | 308° |
| 2026-04-21 16:57 | 34.04372 | -119.21606 | 24605 ft | 398 kts | 314° |
| 2026-04-21 16:57 | 34.06673 | -119.23599 | 25107 ft | 403 kts | 315° |
| 2026-04-21 16:57 | 34.09008 | -119.25580 | 25643 ft | 406 kts | 315° |
| 2026-04-21 16:58 | 34.11213 | -119.27451 | 26179 ft | 408 kts | 314° |
| 2026-04-21 16:58 | 34.13561 | -119.29440 | 26633 ft | 411 kts | 314° |
| 2026-04-21 16:58 | 34.15934 | -119.31467 | 27069 ft | 414 kts | 314° |
| 2026-04-21 16:58 | 34.18313 | -119.33504 | 27505 ft | 417 kts | 314° |
| 2026-04-21 16:59 | 34.20694 | -119.35553 | 27933 ft | 419 kts | 314° |
| 2026-04-21 16:59 | 34.23070 | -119.37597 | 28348 ft | 422 kts | 314° |
| 2026-04-21 16:59 | 34.25506 | -119.39701 | 28775 ft | 424 kts | 314° |
| 2026-04-21 16:59 | 34.27904 | -119.41775 | 29160 ft | 427 kts | 314° |
| 2026-04-21 17:00 | 34.30328 | -119.43874 | 29694 ft | 426 kts | 314° |
| 2026-04-21 17:00 | 34.32761 | -119.45980 | 30247 ft | 423 kts | 313° |
| 2026-04-21 17:00 | 34.34355 | -119.47357 | 30623 ft | 421 kts | 313° |
| 2026-04-21 17:00 | 34.37528 | -119.50102 | 31389 ft | 416 kts | 313° |
| 2026-04-21 17:01 | 34.39835 | -119.52196 | 31995 ft | 406 kts | 309° |
| 2026-04-21 17:01 | 34.41970 | -119.54373 | 32546 ft | 396 kts | 306° |
| 2026-04-21 17:01 | 34.43987 | -119.56694 | 32795 ft | 396 kts | 303° |
| 2026-04-21 17:01 | 34.45937 | -119.59088 | 32956 ft | 400 kts | 302° |
| 2026-04-21 17:02 | 34.47901 | -119.61515 | 33236 ft | 401 kts | 302° |
| 2026-04-21 17:02 | 34.49865 | -119.63935 | 33719 ft | 397 kts | 302° |
| 2026-04-21 17:02 | 34.51812 | -119.66333 | 34138 ft | 394 kts | 301° |
| 2026-04-21 17:02 | 34.53750 | -119.68739 | 34474 ft | 394 kts | 302° |
| 2026-04-21 17:03 | 34.55670 | -119.71124 | 34779 ft | 393 kts | 302° |
| 2026-04-21 17:03 | 34.57585 | -119.73495 | 35066 ft | 394 kts | 302° |
| 2026-04-21 17:03 | 34.59525 | -119.75901 | 35228 ft | 397 kts | 302° |
| 2026-04-21 17:03 | 34.61474 | -119.78317 | 35428 ft | 398 kts | 302° |
| 2026-04-21 17:04 | 34.63400 | -119.80701 | 35732 ft | 397 kts | 302° |
| 2026-04-21 17:04 | 34.65363 | -119.83130 | 35996 ft | 398 kts | 303° |
| 2026-04-21 17:04 | 34.67308 | -119.85540 | 36046 ft | 400 kts | 303° |
| 2026-04-21 17:05 | 34.71224 | -119.90392 | 36044 ft | 399 kts | 302° |
| 2026-04-21 17:05 | 34.75113 | -119.95218 | 36047 ft | 401 kts | 303° |
| 2026-04-21 17:06 | 34.79010 | -120.00060 | 36037 ft | 400 kts | 302° |
| 2026-04-21 17:06 | 34.82938 | -120.04951 | 36040 ft | 401 kts | 303° |
| 2026-04-21 17:07 | 34.86842 | -120.09821 | 36042 ft | 402 kts | 302° |
| 2026-04-21 17:07 | 34.90765 | -120.14717 | 36052 ft | 401 kts | 303° |
| 2026-04-21 17:08 | 34.94665 | -120.19598 | 36059 ft | 404 kts | 303° |
| 2026-04-21 17:08 | 34.98569 | -120.24480 | 36060 ft | 403 kts | 302° |
| 2026-04-21 17:09 | 35.04477 | -120.31892 | 36050 ft | 403 kts | 303° |
| 2026-04-21 17:09 | 35.08392 | -120.36798 | 36052 ft | 405 kts | 304° |
| 2026-04-21 17:10 | 35.12419 | -120.41372 | 36040 ft | 410 kts | 306° |
| 2026-04-21 17:10 | 35.16708 | -120.46136 | 36042 ft | 412 kts | 306° |
| 2026-04-21 17:11 | 35.20974 | -120.50898 | 36036 ft | 412 kts | 306° |
| 2026-04-21 17:11 | 35.25245 | -120.55695 | 36035 ft | 413 kts | 306° |
| 2026-04-21 17:12 | 35.29478 | -120.60456 | 36045 ft | 413 kts | 306° |
| 2026-04-21 17:12 | 35.33763 | -120.65286 | 36032 ft | 414 kts | 305° |
| 2026-04-21 17:13 | 35.38018 | -120.70110 | 36036 ft | 414 kts | 305° |
| 2026-04-21 17:13 | 35.42271 | -120.74932 | 36032 ft | 414 kts | 305° |
| 2026-04-21 17:14 | 35.46496 | -120.79710 | 36169 ft | 410 kts | 306° |
| 2026-04-21 17:14 | 35.50911 | -120.84191 | 36043 ft | 411 kts | 310° |
| 2026-04-21 17:15 | 35.55476 | -120.88427 | 36015 ft | 409 kts | 311° |
| 2026-04-21 17:15 | 35.60059 | -120.92677 | 36020 ft | 411 kts | 311° |
| 2026-04-21 17:16 | 35.64642 | -120.96941 | 35997 ft | 414 kts | 311° |
| 2026-04-21 17:16 | 35.69228 | -121.01208 | 36021 ft | 412 kts | 311° |
| 2026-04-21 17:17 | 35.73822 | -121.05493 | 35994 ft | 414 kts | 311° |
| 2026-04-21 17:17 | 35.78400 | -121.09767 | 35985 ft | 413 kts | 311° |
| 2026-04-21 17:18 | 35.83013 | -121.14087 | 35977 ft | 415 kts | 311° |
| 2026-04-21 17:18 | 35.87580 | -121.18357 | 35251 ft | 418 kts | 311° |
| 2026-04-21 17:19 | 35.89921 | -121.20558 | 34209 ft | 429 kts | 311° |
| 2026-04-21 17:19 | 35.92340 | -121.22838 | 33281 ft | 436 kts | 311° |
| 2026-04-21 17:19 | 35.94766 | -121.25118 | 32504 ft | 440 kts | 311° |
| 2026-04-21 17:19 | 35.97237 | -121.27440 | 31756 ft | 443 kts | 311° |
| 2026-04-21 17:20 | 35.99703 | -121.29758 | 31023 ft | 446 kts | 312° |
| 2026-04-21 17:20 | 36.02135 | -121.32048 | 30316 ft | 447 kts | 311° |
| 2026-04-21 17:20 | 36.04630 | -121.34396 | 29578 ft | 450 kts | 312° |
| 2026-04-21 17:20 | 36.07191 | -121.36713 | 28818 ft | 457 kts | 316° |
| 2026-04-21 17:21 | 36.09885 | -121.38891 | 28163 ft | 460 kts | 318° |
| 2026-04-21 17:21 | 36.12622 | -121.41017 | 27636 ft | 457 kts | 319° |
| 2026-04-21 17:21 | 36.15043 | -121.42876 | 27226 ft | 452 kts | 319° |
| 2026-04-21 17:21 | 36.17726 | -121.44943 | 26685 ft | 449 kts | 319° |
| 2026-04-21 17:22 | 36.20367 | -121.46988 | 26117 ft | 448 kts | 320° |
| 2026-04-21 17:22 | 36.23001 | -121.49043 | 25585 ft | 444 kts | 320° |
| 2026-04-21 17:22 | 36.25633 | -121.51098 | 25158 ft | 439 kts | 320° |
| 2026-04-21 17:22 | 36.28218 | -121.53121 | 24695 ft | 436 kts | 320° |
| 2026-04-21 17:23 | 36.30779 | -121.55132 | 24182 ft | 434 kts | 320° |
| 2026-04-21 17:23 | 36.33353 | -121.57153 | 23671 ft | 431 kts | 321° |
| 2026-04-21 17:23 | 36.35875 | -121.59132 | 23163 ft | 428 kts | 321° |
| 2026-04-21 17:23 | 36.38409 | -121.61124 | 22631 ft | 425 kts | 321° |
| 2026-04-21 17:24 | 36.40910 | -121.63091 | 22192 ft | 420 kts | 322° |
| 2026-04-21 17:24 | 36.43388 | -121.65048 | 21729 ft | 416 kts | 321° |
| 2026-04-21 17:24 | 36.45843 | -121.66993 | 21256 ft | 412 kts | 322° |
| 2026-04-21 17:24 | 36.48267 | -121.68913 | 20770 ft | 409 kts | 322° |
| 2026-04-21 17:25 | 36.50692 | -121.70830 | 20314 ft | 404 kts | 322° |
| 2026-04-21 17:25 | 36.53079 | -121.72717 | 19866 ft | 400 kts | 322° |
| 2026-04-21 17:25 | 36.55436 | -121.74583 | 19406 ft | 397 kts | 322° |
| 2026-04-21 17:25 | 36.57757 | -121.76416 | 18964 ft | 393 kts | 323° |
| 2026-04-21 17:26 | 36.60080 | -121.78255 | 18547 ft | 389 kts | 322° |
| 2026-04-21 17:26 | 36.62371 | -121.80069 | 18120 ft | 385 kts | 323° |
| 2026-04-21 17:26 | 36.64637 | -121.81866 | 17687 ft | 382 kts | 323° |
| 2026-04-21 17:26 | 36.66875 | -121.83642 | 17257 ft | 378 kts | 323° |
| 2026-04-21 17:27 | 36.69108 | -121.85413 | 16849 ft | 375 kts | 323° |
| 2026-04-21 17:27 | 36.71302 | -121.87157 | 16439 ft | 371 kts | 323° |
| 2026-04-21 17:27 | 36.73555 | -121.88787 | 16014 ft | 371 kts | 330° |
| 2026-04-21 17:27 | 36.75975 | -121.89964 | 15586 ft | 372 kts | 341° |
| 2026-04-21 17:28 | 36.78469 | -121.90741 | 15171 ft | 371 kts | 345° |
| 2026-04-21 17:28 | 36.80995 | -121.91419 | 14749 ft | 368 kts | 345° |
| 2026-04-21 17:28 | 36.83509 | -121.92081 | 14342 ft | 365 kts | 345° |
| 2026-04-21 17:28 | 36.86021 | -121.92757 | 13948 ft | 362 kts | 345° |
| 2026-04-21 17:29 | 36.88496 | -121.93442 | 13522 ft | 360 kts | 345° |
| 2026-04-21 17:29 | 36.90951 | -121.94125 | 13126 ft | 358 kts | 344° |
| 2026-04-21 17:29 | 36.93399 | -121.94811 | 12755 ft | 354 kts | 344° |
| 2026-04-21 17:29 | 36.95760 | -121.95547 | 12370 ft | 350 kts | 341° |
| 2026-04-21 17:30 | 36.98112 | -121.96435 | 11996 ft | 347 kts | 340° |
| 2026-04-21 17:30 | 37.00400 | -121.97330 | 11612 ft | 344 kts | 339° |
| 2026-04-21 17:30 | 37.02687 | -121.98232 | 11229 ft | 341 kts | 339° |
| 2026-04-21 17:30 | 37.04981 | -121.99134 | 10849 ft | 339 kts | 339° |
| 2026-04-21 17:31 | 37.07226 | -122.00015 | 10468 ft | 336 kts | 339° |
| 2026-04-21 17:31 | 37.09479 | -122.00897 | 10110 ft | 332 kts | 340° |
| 2026-04-21 17:31 | 37.11631 | -122.01734 | 10053 ft | 317 kts | 340° |
| 2026-04-21 17:31 | 37.13739 | -122.02550 | 10011 ft | 302 kts | 340° |
| 2026-04-21 17:32 | 37.15749 | -122.03330 | 9750 ft | 296 kts | 339° |
| 2026-04-21 17:32 | 37.17691 | -122.04092 | 9440 ft | 294 kts | 339° |
| 2026-04-21 17:32 | 37.19017 | -122.04613 | 9220 ft | 293 kts | 339° |
| 2026-04-21 17:32 | 37.21609 | -122.05630 | 8762 ft | 291 kts | 339° |
| 2026-04-21 17:33 | 37.23529 | -122.06384 | 8438 ft | 288 kts | 339° |
| 2026-04-21 17:33 | 37.25457 | -122.07142 | 8127 ft | 285 kts | 339° |
| 2026-04-21 17:33 | 37.27340 | -122.07880 | 8022 ft | 274 kts | 339° |
| 2026-04-21 17:33 | 37.27931 | -122.08110 | 7981 ft | 272 kts | 339° |